Time;durP1;ratioP1;P1;durP2;ratioP2;P2;SDS_P1;SDS_P2;PMS_P1;PMS_P2;Temp;Humidity;BMP_temperature;BMP_pressure;BME280_temperature;BME280_humidity;BME280_pressure;Samples;Min_cycle;Max_cycle;Signal;HPM_P1;HPM_P2
2023/04/20 00:01:23;;;;;;;4.23;3.83;;;8.40;99.90;;;;;;5049090;28;20243;-58
2023/04/20 00:03:51;;;;;;;5.10;4.50;;;8.40;99.90;;;;;;5051205;28;20221;-57
2023/04/20 00:06:21;;;;;;;3.70;3.50;;;8.40;99.90;;;;;;5046011;28;20247;-57
2023/04/20 00:08:51;;;;;;;4.53;3.90;;;8.40;99.90;;;;;;5046438;28;20274;-57
2023/04/20 00:11:19;;;;;;;5.07;4.23;;;8.40;99.90;;;;;;5048880;28;20225;-57
2023/04/20 00:13:47;;;;;;;4.87;4.10;;;8.30;99.90;;;;;;5062830;28;20221;-57
2023/04/20 00:16:16;;;;;;;4.63;4.00;;;8.30;99.90;;;;;;5050909;28;20197;-57
2023/04/20 00:18:46;;;;;;;6.07;4.30;;;8.30;99.90;;;;;;5047680;28;20213;-57
2023/04/20 00:21:15;;;;;;;7.40;4.30;;;8.30;99.90;;;;;;5041549;28;20744;-57
2023/04/20 00:23:44;;;;;;;7.53;4.13;;;8.20;99.90;;;;;;5049290;28;20617;-57
2023/04/20 00:26:13;;;;;;;4.87;4.47;;;8.20;99.90;;;;;;5053542;28;20225;-57
2023/04/20 00:28:42;;;;;;;5.80;3.83;;;8.10;99.90;;;;;;5050506;28;20224;-57
2023/04/20 00:31:10;;;;;;;4.87;4.00;;;8.10;99.90;;;;;;5051506;28;20610;-57
2023/04/20 00:33:38;;;;;;;6.57;4.00;;;8.10;99.90;;;;;;5050569;28;20230;-57
2023/04/20 00:36:07;;;;;;;10.30;4.23;;;8.00;99.90;;;;;;5051150;28;20212;-57
2023/04/20 00:38:36;;;;;;;5.20;4.20;;;8.00;99.90;;;;;;5048874;28;20286;-57
2023/04/20 00:41:04;;;;;;;5.43;3.97;;;8.00;99.90;;;;;;5047483;28;20244;-57
2023/04/20 00:43:34;;;;;;;5.03;4.10;;;7.90;99.90;;;;;;5049853;28;20196;-57
2023/04/20 00:46:03;;;;;;;4.27;3.87;;;7.90;99.90;;;;;;5049863;28;20212;-57
2023/04/20 00:48:31;;;;;;;4.20;3.80;;;7.80;99.90;;;;;;5049913;28;20270;-57
2023/04/20 00:51:00;;;;;;;4.23;3.93;;;7.80;99.90;;;;;;5046062;28;20209;-57
2023/04/20 00:53:28;;;;;;;7.00;4.40;;;7.80;99.90;;;;;;5044964;28;20220;-57
2023/04/20 00:55:57;;;;;;;4.40;4.10;;;7.70;99.90;;;;;;5043433;28;20564;-57
2023/04/20 00:58:25;;;;;;;5.47;4.23;;;7.70;99.90;;;;;;5051760;28;20239;-57
2023/04/20 01:00:55;;;;;;;4.40;4.00;;;7.70;99.90;;;;;;5051160;28;20238;-57
2023/04/20 01:03:26;;;;;;;5.73;3.97;;;7.60;99.90;;;;;;5049753;28;20635;-57
2023/04/20 01:05:55;;;;;;;9.43;4.30;;;7.60;99.90;;;;;;5045861;28;20219;-57
2023/04/20 01:08:26;;;;;;;4.53;4.00;;;7.50;99.90;;;;;;5046641;28;20217;-57
2023/04/20 01:10:55;;;;;;;4.23;3.83;;;7.50;99.90;;;;;;5045298;28;20536;-57
2023/04/20 01:13:23;;;;;;;8.93;4.37;;;7.40;99.90;;;;;;5046816;28;20764;-56
2023/04/20 01:15:52;;;;;;;7.97;4.00;;;7.40;99.90;;;;;;5048956;28;20185;-57
2023/04/20 01:18:21;;;;;;;4.47;3.90;;;7.40;99.90;;;;;;5047919;28;20315;-57
2023/04/20 01:20:49;;;;;;;4.40;4.00;;;7.40;99.90;;;;;;5048497;28;20270;-57
2023/04/20 01:23:19;;;;;;;4.67;4.27;;;7.30;99.90;;;;;;5048946;28;20221;-57
2023/04/20 01:25:47;;;;;;;4.70;4.07;;;7.30;99.90;;;;;;5048986;28;20236;-57
2023/04/20 01:28:16;;;;;;;9.77;4.20;;;7.30;99.90;;;;;;5059671;28;20217;-57
2023/04/20 01:30:44;;;;;;;5.17;4.03;;;7.30;99.90;;;;;;5048993;28;20274;-57
2023/04/20 01:33:12;;;;;;;11.67;4.27;;;7.20;99.90;;;;;;5042749;28;20767;-57
2023/04/20 01:35:42;;;;;;;10.13;3.97;;;7.20;99.90;;;;;;5037863;28;20233;-58
2023/04/20 01:38:17;;;;;;;4.30;3.90;;;7.20;99.90;;;;;;5039763;28;20275;-57
2023/04/20 01:40:46;;;;;;;4.37;3.97;;;7.20;99.90;;;;;;5045455;28;20223;-57
2023/04/20 01:43:15;;;;;;;4.57;3.67;;;7.10;99.90;;;;;;5039069;28;20716;-57
2023/04/20 01:45:43;;;;;;;15.27;3.90;;;7.10;99.90;;;;;;5037659;28;20220;-57
2023/04/20 01:48:11;;;;;;;7.07;4.43;;;7.10;99.90;;;;;;5043351;28;20221;-57
2023/04/20 01:50:40;;;;;;;5.53;3.80;;;7.10;99.90;;;;;;5041074;28;20270;-57
2023/04/20 01:53:08;;;;;;;11.23;4.27;;;7.10;99.90;;;;;;5050627;28;20678;-58
2023/04/20 01:55:36;;;;;;;7.67;3.97;;;7.00;99.90;;;;;;5049642;28;20181;-57
2023/04/20 01:58:06;;;;;;;5.77;4.20;;;6.90;99.90;;;;;;5049492;28;20204;-58
2023/04/20 02:00:34;;;;;;;4.80;4.37;;;6.90;99.90;;;;;;5044612;28;20216;-57
2023/04/20 02:03:03;;;;;;;4.03;3.53;;;6.80;99.90;;;;;;5041348;28;20233;-57
2023/04/20 02:05:32;;;;;;;5.33;4.30;;;6.80;99.90;;;;;;5048634;28;20296;-57
2023/04/20 02:08:00;;;;;;;4.23;3.83;;;6.80;99.90;;;;;;5047076;28;20247;-55
2023/04/20 02:10:28;;;;;;;9.73;4.30;;;6.80;99.90;;;;;;5037483;28;20197;-56
2023/04/20 02:12:57;;;;;;;5.77;4.20;;;6.80;99.90;;;;;;5045675;28;20201;-57
2023/04/20 02:15:26;;;;;;;8.37;3.93;;;6.80;99.90;;;;;;5047212;28;20278;-57
2023/04/20 02:17:56;;;;;;;4.50;3.87;;;6.80;99.90;;;;;;5044993;28;20220;-57
2023/04/20 02:20:25;;;;;;;7.67;4.13;;;6.70;99.90;;;;;;5046182;28;20225;-57
2023/04/20 02:22:53;;;;;;;4.00;3.73;;;6.60;99.90;;;;;;5044989;28;20221;-56
2023/04/20 02:25:21;;;;;;;3.90;3.60;;;6.50;99.90;;;;;;5047281;28;20193;-57
2023/04/20 02:27:50;;;;;;;4.00;3.70;;;6.40;99.90;;;;;;5048060;28;20217;-55
2023/04/20 02:30:19;;;;;;;5.07;4.13;;;6.40;99.90;;;;;;5049318;28;20220;-57
2023/04/20 02:32:49;;;;;;;9.70;3.73;;;6.40;99.90;;;;;;5048033;28;20227;-56
2023/04/20 02:35:17;;;;;;;4.13;3.77;;;6.40;99.90;;;;;;5050084;28;20282;-57
2023/04/20 02:37:46;;;;;;;10.53;3.87;;;6.40;99.90;;;;;;5045386;28;20217;-57
2023/04/20 02:40:14;;;;;;;7.73;3.63;;;6.50;99.90;;;;;;5048676;28;20196;-57
2023/04/20 02:42:43;;;;;;;4.93;3.47;;;6.50;99.90;;;;;;5050342;28;20574;-57
2023/04/20 02:45:14;;;;;;;6.47;3.50;;;6.50;99.90;;;;;;5051004;28;20221;-57
2023/04/20 02:47:43;;;;;;;5.20;3.70;;;6.50;99.90;;;;;;5049986;28;20316;-57
2023/04/20 02:50:13;;;;;;;6.60;3.83;;;6.50;99.90;;;;;;5046792;28;20270;-57
2023/04/20 02:52:41;;;;;;;5.43;4.00;;;6.40;99.90;;;;;;5046932;28;20603;-56
2023/04/20 02:55:09;;;;;;;3.90;3.60;;;6.40;99.90;;;;;;5044757;28;20181;-56
2023/04/20 02:57:38;;;;;;;11.23;4.10;;;6.20;99.90;;;;;;5045678;28;20216;-57
2023/04/20 03:00:08;;;;;;;5.63;3.90;;;6.10;99.90;;;;;;5047646;28;20208;-57
2023/04/20 03:02:36;;;;;;;4.43;4.10;;;5.90;99.90;;;;;;5048143;28;20274;-57
2023/04/20 03:05:06;;;;;;;4.23;3.77;;;5.80;99.90;;;;;;5044173;28;20248;-57
2023/04/20 03:07:35;;;;;;;5.13;4.20;;;5.60;99.90;;;;;;5041422;28;20206;-56
2023/04/20 03:10:05;;;;;;;5.00;4.03;;;5.50;99.90;;;;;;5049972;28;20208;-57
2023/04/20 03:12:33;;;;;;;5.40;4.10;;;5.40;99.90;;;;;;5052775;28;20236;-57
2023/04/20 03:15:01;;;;;;;4.17;3.87;;;5.30;99.90;;;;;;5052949;28;20270;-56
2023/04/20 03:17:29;;;;;;;5.27;4.33;;;5.20;99.90;;;;;;5045676;28;20209;-57
2023/04/20 03:19:58;;;;;;;5.50;4.33;;;5.10;99.90;;;;;;5050314;28;20290;-57
2023/04/20 03:22:26;;;;;;;6.57;4.50;;;5.00;99.90;;;;;;5051741;28;20200;-57
2023/04/20 03:24:56;;;;;;;4.97;4.27;;;4.90;99.90;;;;;;5054328;28;20189;-57
2023/04/20 03:27:24;;;;;;;5.07;4.13;;;4.90;99.90;;;;;;5049029;28;20223;-57
2023/04/20 03:29:52;;;;;;;7.13;4.70;;;4.80;99.90;;;;;;5051022;28;20217;-56
2023/04/20 03:32:20;;;;;;;4.90;4.40;;;4.80;99.90;;;;;;5050760;28;20229;-57
2023/04/20 03:34:50;;;;;;;6.40;4.90;;;4.70;99.90;;;;;;5049573;28;20224;-57
2023/04/20 03:37:18;;;;;;;5.50;4.13;;;4.70;99.90;;;;;;5047514;28;20219;-57
2023/04/20 03:39:46;;;;;;;5.67;4.37;;;4.60;99.90;;;;;;5046394;28;20247;-57
2023/04/20 03:42:16;;;;;;;6.30;4.03;;;4.60;99.90;;;;;;5048476;28;20227;-57
2023/04/20 03:44:44;;;;;;;7.30;4.40;;;4.60;99.90;;;;;;5051788;28;20249;-57
2023/04/20 03:47:14;;;;;;;4.50;4.10;;;4.60;99.90;;;;;;5048590;28;20233;-56
2023/04/20 03:49:42;;;;;;;6.57;4.47;;;4.60;99.90;;;;;;5042607;28;20232;-57
2023/04/20 03:52:11;;;;;;;4.50;4.20;;;4.50;99.90;;;;;;5046193;28;20189;-57
2023/04/20 03:54:39;;;;;;;5.33;4.47;;;4.50;99.90;;;;;;5044773;28;20275;-57
2023/04/20 03:57:07;;;;;;;8.43;4.63;;;4.50;99.90;;;;;;5047596;28;20220;-56
2023/04/20 03:59:37;;;;;;;4.83;4.43;;;4.50;99.90;;;;;;5050187;28;20243;-57
2023/04/20 04:02:06;;;;;;;6.70;4.70;;;4.50;99.90;;;;;;5048187;28;20732;-56
2023/04/20 04:04:34;;;;;;;14.77;4.27;;;4.50;99.90;;;;;;5048415;28;20189;-57
2023/04/20 04:07:02;;;;;;;8.17;4.30;;;4.40;99.90;;;;;;5047023;28;20192;-57
2023/04/20 04:09:30;;;;;;;9.27;4.70;;;4.40;99.90;;;;;;5040965;28;20209;-57
2023/04/20 04:12:00;;;;;;;10.10;4.20;;;4.40;99.90;;;;;;5045242;28;20659;-56
2023/04/20 04:14:29;;;;;;;5.20;4.70;;;4.40;99.90;;;;;;5040687;28;20221;-56
2023/04/20 04:16:59;;;;;;;6.70;4.33;;;4.40;99.90;;;;;;5042412;28;20526;-57
2023/04/20 04:19:27;;;;;;;5.50;4.00;;;4.40;99.90;;;;;;5041961;28;20228;-57
2023/04/20 04:21:55;;;;;;;5.87;4.50;;;4.30;99.90;;;;;;5048470;28;20184;-56
2023/04/20 04:24:25;;;;;;;6.73;4.50;;;4.30;99.90;;;;;;5042603;28;20247;-56
2023/04/20 04:26:57;;;;;;;7.10;4.37;;;4.20;99.90;;;;;;5044177;28;20357;-57
2023/04/20 04:29:25;;;;;;;4.83;4.10;;;4.20;99.90;;;;;;5050762;28;20224;-57
2023/04/20 04:31:54;;;;;;;7.60;4.33;;;4.20;99.90;;;;;;5052285;28;20228;-57
2023/04/20 04:34:28;;;;;;;13.73;4.80;;;4.20;99.90;;;;;;5049555;28;20528;-57
2023/04/20 04:36:56;;;;;;;7.00;4.50;;;4.30;99.90;;;;;;5051454;28;20199;-57
2023/04/20 04:39:26;;;;;;;7.53;4.80;;;4.30;99.90;;;;;;5040308;28;20621;-57
2023/04/20 04:41:56;;;;;;;5.97;4.53;;;4.30;99.90;;;;;;5045803;28;20221;-57
2023/04/20 04:44:27;;;;;;;6.40;4.47;;;4.40;99.90;;;;;;5049531;28;20263;-57
2023/04/20 04:46:56;;;;;;;5.33;4.83;;;4.40;99.90;;;;;;5042756;28;20256;-57
2023/04/20 04:49:26;;;;;;;5.97;5.10;;;4.50;99.90;;;;;;5046926;28;20201;-57
2023/04/20 04:51:54;;;;;;;7.70;4.77;;;4.70;99.90;;;;;;5045430;28;20193;-57
2023/04/20 04:54:22;;;;;;;4.80;4.40;;;4.80;99.90;;;;;;5050110;28;20302;-57
2023/04/20 04:56:50;;;;;;;5.27;4.70;;;4.90;99.90;;;;;;5047367;28;20711;-57
2023/04/20 04:59:19;;;;;;;12.20;4.80;;;5.10;99.90;;;;;;5043710;28;20217;-57
2023/04/20 05:01:47;;;;;;;5.03;4.17;;;5.20;99.90;;;;;;5043333;28;20702;-56
2023/04/20 05:04:15;;;;;;;10.83;4.40;;;5.30;99.90;;;;;;5046800;28;20191;-57
2023/04/20 05:06:45;;;;;;;8.43;4.20;;;5.40;99.90;;;;;;5046775;28;20312;-57
2023/04/20 05:09:13;;;;;;;4.87;4.37;;;5.50;99.90;;;;;;5050333;28;20703;-56
2023/04/20 05:11:41;;;;;;;8.13;4.20;;;5.60;99.90;;;;;;5042041;28;20232;-57
2023/04/20 05:14:10;;;;;;;4.30;3.90;;;5.70;99.90;;;;;;5044405;28;20224;-56
2023/04/20 05:16:38;;;;;;;8.53;4.70;;;5.70;99.90;;;;;;5045885;28;20189;-57
2023/04/20 05:19:06;;;;;;;7.57;4.23;;;5.80;99.90;;;;;;5046629;28;20239;-57
2023/04/20 05:21:36;;;;;;;4.70;4.30;;;5.90;99.90;;;;;;5042488;28;20224;-57
2023/04/20 05:24:07;;;;;;;6.23;4.30;;;5.90;99.90;;;;;;5039383;28;20224;-56
2023/04/20 05:26:38;;;;;;;5.40;4.17;;;6.00;99.90;;;;;;5041674;28;20644;-57
2023/04/20 05:29:06;;;;;;;6.70;4.00;;;6.00;99.90;;;;;;5045241;28;20257;-57
2023/04/20 05:31:35;;;;;;;7.77;4.50;;;6.10;99.90;;;;;;5044186;28;20274;-57
2023/04/20 05:34:03;;;;;;;12.30;4.33;;;6.10;99.90;;;;;;5043838;28;20319;-58
2023/04/20 05:36:32;;;;;;;6.63;4.40;;;6.20;99.90;;;;;;5036454;28;20622;-57
2023/04/20 05:39:02;;;;;;;8.30;4.60;;;6.20;99.90;;;;;;5042610;28;20708;-57
2023/04/20 05:41:32;;;;;;;8.13;4.43;;;6.30;99.90;;;;;;5045567;28;20630;-57
2023/04/20 05:44:00;;;;;;;5.63;4.10;;;6.40;99.90;;;;;;5045242;28;20221;-57
2023/04/20 05:46:28;;;;;;;7.10;4.43;;;6.40;99.90;;;;;;5041475;28;20216;-57
2023/04/20 05:49:00;;;;;;;6.57;4.30;;;6.50;99.90;;;;;;5045177;28;20560;-57
2023/04/20 05:51:32;;;;;;;11.23;4.10;;;6.60;99.90;;;;;;5038259;28;20239;-57
2023/04/20 05:54:00;;;;;;;5.80;4.87;;;6.60;99.90;;;;;;5041756;28;20212;-57
2023/04/20 05:56:29;;;;;;;14.60;5.17;;;6.80;99.90;;;;;;5044248;28;20233;-58
2023/04/20 05:58:59;;;;;;;7.20;4.23;;;6.80;99.90;;;;;;5047599;28;20221;-57
2023/04/20 06:01:28;;;;;;;8.97;4.53;;;6.80;99.90;;;;;;5044890;28;20259;-57
2023/04/20 06:03:56;;;;;;;5.77;4.37;;;6.80;99.90;;;;;;5044570;28;20664;-57
2023/04/20 06:06:25;;;;;;;8.10;5.40;;;6.90;99.90;;;;;;5046760;28;20231;-57
2023/04/20 06:08:53;;;;;;;5.00;4.50;;;7.00;99.90;;;;;;5045736;28;20840;-57
2023/04/20 06:11:22;;;;;;;5.30;4.80;;;7.10;99.90;;;;;;5048551;28;20209;-57
2023/04/20 06:13:50;;;;;;;7.60;4.70;;;7.20;99.90;;;;;;5052262;28;20226;-57
2023/04/20 06:16:20;;;;;;;5.43;4.90;;;7.20;99.90;;;;;;5046726;28;20275;-57
2023/04/20 06:18:48;;;;;;;4.80;4.30;;;7.30;99.90;;;;;;5046366;28;20272;-57
2023/04/20 06:21:18;;;;;;;9.57;4.60;;;7.40;99.90;;;;;;5051085;28;20224;-57
2023/04/20 06:23:46;;;;;;;9.27;4.67;;;7.50;99.90;;;;;;5051354;28;20645;-57
2023/04/20 06:26:14;;;;;;;6.93;4.60;;;7.50;99.90;;;;;;5052114;28;20232;-57
2023/04/20 06:28:44;;;;;;;10.50;4.83;;;7.60;99.90;;;;;;5052240;28;20714;-57
2023/04/20 06:31:12;;;;;;;8.80;4.50;;;7.70;99.90;;;;;;5055406;28;20227;-57
2023/04/20 06:33:42;;;;;;;6.93;4.97;;;7.80;99.90;;;;;;5051694;28;20254;-57
2023/04/20 06:36:10;;;;;;;9.37;4.77;;;8.00;99.90;;;;;;5049529;28;20583;-57
2023/04/20 06:38:39;;;;;;;4.90;4.40;;;8.10;99.90;;;;;;5054664;28;20212;-57
2023/04/20 06:41:07;;;;;;;4.20;3.80;;;8.30;99.90;;;;;;5050683;28;20746;-57
2023/04/20 06:43:35;;;;;;;6.60;4.20;;;8.60;99.90;;;;;;5053557;28;20527;-57
2023/04/20 06:46:04;;;;;;;8.70;4.30;;;8.70;99.90;;;;;;5047154;28;20659;-57
2023/04/20 06:48:33;;;;;;;5.33;4.50;;;8.90;99.90;;;;;;5037341;28;20217;-57
2023/04/20 06:51:02;;;;;;;6.43;4.00;;;8.90;99.90;;;;;;5049333;28;20212;-57
2023/04/20 06:53:31;;;;;;;6.87;4.60;;;8.90;99.90;;;;;;5053909;28;20209;-57
2023/04/20 06:55:59;;;;;;;5.40;4.17;;;8.70;99.90;;;;;;5053244;28;20274;-57
2023/04/20 06:58:27;;;;;;;5.60;5.03;;;8.70;99.90;;;;;;5043633;28;20200;-57
2023/04/20 07:00:56;;;;;;;8.77;4.67;;;8.40;99.90;;;;;;5045166;28;20189;-57
2023/04/20 07:03:24;;;;;;;7.67;4.57;;;8.20;99.90;;;;;;5044489;28;20633;-57
2023/04/20 07:05:52;;;;;;;5.50;5.00;;;8.00;99.90;;;;;;5047844;28;20220;-57
2023/04/20 07:08:22;;;;;;;8.73;4.77;;;8.00;99.90;;;;;;5053504;28;20266;-57
2023/04/20 07:10:50;;;;;;;4.87;4.37;;;8.10;99.90;;;;;;5052527;28;20224;-57
2023/04/20 07:13:18;;;;;;;9.73;4.77;;;8.10;99.90;;;;;;5050676;28;20239;-57
2023/04/20 07:15:47;;;;;;;8.13;4.70;;;8.00;99.90;;;;;;5046689;28;20236;-57
2023/04/20 07:18:15;;;;;;;10.43;5.07;;;7.90;99.90;;;;;;5052986;28;20255;-57
2023/04/20 07:20:43;;;;;;;10.90;4.83;;;7.90;99.90;;;;;;5053381;28;20587;-57
2023/04/20 07:23:12;;;;;;;8.80;4.90;;;7.80;99.90;;;;;;5051884;28;20289;-57
2023/04/20 07:25:41;;;;;;;5.83;4.53;;;7.80;99.90;;;;;;5049423;28;20185;-57
2023/04/20 07:28:09;;;;;;;6.23;4.70;;;7.80;99.90;;;;;;5048116;28;20709;-57
2023/04/20 07:30:38;;;;;;;6.60;4.60;;;7.70;99.90;;;;;;5054423;28;20650;-57
2023/04/20 07:33:07;;;;;;;7.83;5.20;;;7.70;99.90;;;;;;5050920;28;20758;-57
2023/04/20 07:35:35;;;;;;;5.53;5.00;;;7.80;99.90;;;;;;5050293;28;20224;-57
2023/04/20 07:38:04;;;;;;;7.00;5.37;;;7.80;99.90;;;;;;5053308;28;20230;-56
2023/04/20 07:40:32;;;;;;;8.13;4.83;;;7.80;99.90;;;;;;5051597;28;20234;-56
2023/04/20 07:43:02;;;;;;;6.63;5.07;;;7.80;99.90;;;;;;5054072;28;20193;-57
2023/04/20 07:45:30;;;;;;;5.47;4.93;;;7.90;99.90;;;;;;5046787;28;20683;-57
2023/04/20 07:48:00;;;;;;;7.17;5.30;;;8.00;99.90;;;;;;5047047;28;20338;-57
2023/04/20 07:50:28;;;;;;;6.63;5.10;;;8.00;99.90;;;;;;5047685;28;20221;-56
2023/04/20 07:52:57;;;;;;;5.50;4.87;;;8.10;99.90;;;;;;5052124;28;20224;-56
2023/04/20 07:55:25;;;;;;;5.23;4.73;;;8.10;99.90;;;;;;5048024;28;20247;-56
2023/04/20 07:57:53;;;;;;;5.77;5.17;;;8.10;99.90;;;;;;5053401;28;20216;-57
2023/04/20 08:00:24;;;;;;;9.03;5.00;;;8.20;99.90;;;;;;5049486;28;20228;-56
2023/04/20 08:02:52;;;;;;;9.67;5.50;;;8.20;99.90;;;;;;5051552;28;20729;-57
2023/04/20 08:05:21;;;;;;;5.80;5.30;;;8.30;99.90;;;;;;5047613;28;20270;-57
2023/04/20 08:07:50;;;;;;;7.97;5.33;;;8.40;99.90;;;;;;5051449;28;20247;-57
2023/04/20 08:10:18;;;;;;;11.10;5.30;;;8.40;99.90;;;;;;5043895;28;20204;-57
2023/04/20 08:12:46;;;;;;;12.87;5.37;;;8.40;99.90;;;;;;5049357;28;20251;-57
2023/04/20 08:15:17;;;;;;;10.50;5.20;;;8.50;99.90;;;;;;5046754;28;20709;-57
2023/04/20 08:17:47;;;;;;;6.67;5.10;;;8.50;99.90;;;;;;5040001;28;20637;-57
2023/04/20 08:20:15;;;;;;;7.27;5.43;;;8.50;99.90;;;;;;5048002;28;20293;-57
2023/04/20 08:22:44;;;;;;;6.10;4.83;;;8.50;99.90;;;;;;5049192;28;20271;-57
2023/04/20 08:25:12;;;;;;;5.40;5.00;;;8.60;99.90;;;;;;5050137;28;20559;-57
2023/04/20 08:27:40;;;;;;;7.67;4.87;;;8.60;99.90;;;;;;5048696;28;20232;-57
2023/04/20 08:30:09;;;;;;;6.57;4.87;;;8.70;99.90;;;;;;5050040;28;20251;-57
2023/04/20 08:32:37;;;;;;;5.73;5.13;;;8.70;99.90;;;;;;5047157;28;20228;-57
2023/04/20 08:35:07;;;;;;;5.90;5.20;;;8.80;99.90;;;;;;5046641;28;20221;-58
2023/04/20 08:37:37;;;;;;;14.33;5.47;;;9.00;99.90;;;;;;5041530;28;20197;-57
2023/04/20 08:40:11;;;;;;;7.27;5.20;;;9.00;99.90;;;;;;5047989;28;20190;-57
2023/04/20 08:42:39;;;;;;;9.03;5.00;;;9.00;99.90;;;;;;5043535;28;20208;-57
2023/04/20 08:45:08;;;;;;;12.63;5.10;;;9.00;99.90;;;;;;5047663;28;20553;-57
2023/04/20 08:47:37;;;;;;;10.07;5.30;;;9.00;99.90;;;;;;5049246;28;20229;-57
2023/04/20 08:50:08;;;;;;;5.93;5.40;;;9.30;99.90;;;;;;5041062;28;20868;-57
2023/04/20 08:52:38;;;;;;;6.03;5.43;;;9.30;99.90;;;;;;5044639;28;20651;-57
2023/04/20 08:55:07;;;;;;;7.23;5.53;;;9.50;99.90;;;;;;5041593;28;20555;-57
2023/04/20 08:57:36;;;;;;;6.43;5.60;;;9.70;99.90;;;;;;5036180;28;20549;-57
2023/04/20 09:00:09;;;;;;;6.20;5.13;;;10.40;99.90;;;;;;5046855;28;20706;-57
2023/04/20 09:02:50;;;;;;;5.77;4.80;;;10.80;99.90;;;;;;5048540;28;20224;-57
2023/04/20 09:05:27;;;;;;;7.13;5.37;;;10.90;99.90;;;;;;5050822;28;20216;-57
2023/04/20 09:07:57;;;;;;;7.10;5.17;;;10.70;99.90;;;;;;5050513;28;20219;-57
2023/04/20 09:10:27;;;;;;;9.57;5.10;;;10.60;99.90;;;;;;5048445;28;20216;-57
2023/04/20 09:12:55;;;;;;;6.60;5.13;;;10.40;99.90;;;;;;5046128;28;20201;-57
2023/04/20 09:15:26;;;;;;;5.30;4.80;;;10.70;99.90;;;;;;5047898;28;20267;-57
2023/04/20 09:17:54;;;;;;;6.17;5.67;;;11.10;99.90;;;;;;5049853;28;20621;-57
2023/04/20 09:20:31;;;;;;;7.73;4.67;;;11.10;99.90;;;;;;5050508;28;20224;-57
2023/04/20 09:23:11;;;;;;;8.00;5.13;;;10.70;99.90;;;;;;5048060;28;20215;-56
2023/04/20 09:25:42;;;;;;;8.93;5.03;;;10.60;99.90;;;;;;5046045;28;20192;-57
2023/04/20 09:28:12;;;;;;;9.50;5.47;;;10.50;99.90;;;;;;5048240;28;20201;-57
2023/04/20 09:30:41;;;;;;;8.00;4.90;;;10.20;99.90;;;;;;5048835;28;20279;-57
2023/04/20 09:33:11;;;;;;;6.60;5.47;;;10.10;99.90;;;;;;5038233;28;20230;-57
2023/04/20 09:35:42;;;;;;;11.47;5.63;;;10.00;99.90;;;;;;5043879;28;20220;-56
2023/04/20 09:38:12;;;;;;;9.03;5.63;;;9.90;99.90;;;;;;5050487;28;20220;-57
2023/04/20 09:40:41;;;;;;;7.60;5.23;;;9.80;99.90;;;;;;5054848;28;20193;-57
2023/04/20 09:43:12;;;;;;;5.63;5.00;;;9.80;99.90;;;;;;5055523;28;20546;-57
2023/04/20 09:45:43;;;;;;;14.30;5.93;;;9.80;99.90;;;;;;5054444;28;20224;-57
2023/04/20 09:48:14;;;;;;;8.57;5.73;;;9.90;99.90;;;;;;5054471;28;20220;-57
2023/04/20 09:50:44;;;;;;;7.83;5.97;;;10.00;99.90;;;;;;5055139;28;20227;-57
2023/04/20 09:53:18;;;;;;;8.57;5.73;;;10.30;99.90;;;;;;5054378;28;20211;-57
2023/04/20 09:55:48;;;;;;;6.03;5.40;;;10.30;99.90;;;;;;5050612;28;20221;-57
2023/04/20 09:58:19;;;;;;;8.37;5.37;;;10.40;99.90;;;;;;5047617;28;20192;-57
2023/04/20 10:00:47;;;;;;;8.27;5.43;;;10.20;99.90;;;;;;5045211;28;20205;-57
2023/04/20 10:03:18;;;;;;;6.77;6.13;;;10.20;99.90;;;;;;5050962;28;20227;-57
2023/04/20 10:05:48;;;;;;;7.53;6.23;;;10.20;99.90;;;;;;5055684;28;20609;-58
2023/04/20 10:08:20;;;;;;;6.70;5.97;;;10.20;99.90;;;;;;5050589;28;20271;-57
2023/04/20 10:10:51;;;;;;;6.30;5.80;;;10.40;99.90;;;;;;5051804;28;20311;-57
2023/04/20 10:13:20;;;;;;;9.90;6.27;;;10.30;99.90;;;;;;5050111;28;20251;-57
2023/04/20 10:15:49;;;;;;;9.60;6.07;;;10.20;99.90;;;;;;5051917;28;20266;-57
2023/04/20 10:18:22;;;;;;;5.63;5.13;;;10.30;99.90;;;;;;5047429;28;20224;-57
2023/04/20 10:21:04;;;;;;;9.00;6.10;;;10.20;99.90;;;;;;5053916;28;20266;-57
2023/04/20 10:23:32;;;;;;;11.13;5.50;;;10.40;99.90;;;;;;5046710;28;20706;-57
2023/04/20 10:26:02;;;;;;;8.80;5.70;;;10.50;99.90;;;;;;5054009;28;20247;-57
2023/04/20 10:28:40;;;;;;;7.43;5.87;;;10.50;99.90;;;;;;5049880;28;20197;-57
2023/04/20 10:31:12;;;;;;;8.97;5.50;;;10.30;99.90;;;;;;5051517;28;20216;-57
2023/04/20 10:33:53;;;;;;;7.23;6.03;;;10.00;99.90;;;;;;5061938;28;20315;-57
2023/04/20 10:36:26;;;;;;;8.53;6.30;;;10.10;99.90;;;;;;5047188;28;20220;-58
2023/04/20 10:38:55;;;;;;;7.20;5.50;;;10.10;99.90;;;;;;5048745;28;20238;-57
2023/04/20 10:41:24;;;;;;;7.77;5.50;;;10.00;99.90;;;;;;5065283;28;20274;-57
2023/04/20 10:43:52;;;;;;;8.27;6.13;;;10.00;99.90;;;;;;5048723;28;20225;-57
2023/04/20 10:46:22;;;;;;;6.30;5.70;;;10.20;99.90;;;;;;5052268;28;20255;-58
2023/04/20 10:48:52;;;;;;;6.27;5.67;;;10.30;99.90;;;;;;5051924;28;20556;-57
2023/04/20 10:51:21;;;;;;;5.97;5.47;;;10.30;99.90;;;;;;5046414;28;20224;-57
2023/04/20 10:54:03;;;;;;;10.67;6.33;;;10.30;99.90;;;;;;5045081;28;20239;-57
2023/04/20 10:56:39;;;;;;;6.60;5.97;;;10.30;99.90;;;;;;5053207;28;20640;-57
2023/04/20 10:59:08;;;;;;;9.03;6.40;;;10.50;99.90;;;;;;5049712;28;20220;-57
2023/04/20 11:01:36;;;;;;;9.90;6.13;;;10.60;99.90;;;;;;5047365;28;20193;-57
2023/04/20 11:04:06;;;;;;;6.97;6.37;;;11.00;99.90;;;;;;5050367;28;20187;-57
2023/04/20 11:06:35;;;;;;;7.83;5.83;;;11.30;99.90;;;;;;5050671;28;20223;-57
2023/04/20 11:09:04;;;;;;;7.93;5.77;;;11.30;99.90;;;;;;5049966;28;20217;-57
2023/04/20 11:11:36;;;;;;;6.50;5.23;;;11.40;99.90;;;;;;5047717;28;20216;-58
2023/04/20 11:14:09;;;;;;;5.30;4.80;;;11.30;99.90;;;;;;5046957;28;20240;-57
2023/04/20 11:16:37;;;;;;;6.60;4.93;;;11.10;99.90;;;;;;5052553;28;20185;-57
2023/04/20 11:19:09;;;;;;;5.80;4.57;;;10.90;99.90;;;;;;5050307;28;20189;-57
2023/04/20 11:21:38;;;;;;;5.57;4.47;;;10.60;99.90;;;;;;5046563;28;20204;-57
2023/04/20 11:24:18;;;;;;;4.80;4.50;;;10.60;99.90;;;;;;5050843;28;20286;-57
2023/04/20 11:26:48;;;;;;;4.60;4.30;;;10.50;99.90;;;;;;5040214;28;20217;-57
2023/04/20 11:29:31;;;;;;;5.60;4.37;;;10.70;99.90;;;;;;5044960;28;20588;-57
2023/04/20 11:32:00;;;;;;;5.27;4.20;;;10.70;99.90;;;;;;5048761;28;20239;-57
2023/04/20 11:34:29;;;;;;;4.70;4.30;;;10.70;99.90;;;;;;5053507;28;20216;-58
2023/04/20 11:37:03;;;;;;;6.57;4.43;;;10.70;99.90;;;;;;5046701;28;20292;-57
2023/04/20 11:39:33;;;;;;;7.10;4.97;;;10.60;99.90;;;;;;5048519;28;20222;-57
2023/04/20 11:42:02;;;;;;;4.33;4.03;;;10.70;99.90;;;;;;5045698;28;20210;-57
2023/04/20 11:44:30;;;;;;;4.27;3.97;;;10.80;99.90;;;;;;5051816;28;20701;-57
2023/04/20 11:46:59;;;;;;;5.07;4.47;;;10.70;99.90;;;;;;5044817;28;20734;-57
2023/04/20 11:49:29;;;;;;;5.83;4.47;;;10.60;99.90;;;;;;5045864;28;20197;-57
2023/04/20 11:51:58;;;;;;;4.50;4.00;;;10.70;99.90;;;;;;5053814;28;20220;-57
2023/04/20 11:54:27;;;;;;;4.70;4.30;;;10.70;99.90;;;;;;5052271;28;20225;-57
2023/04/20 11:56:57;;;;;;;5.53;4.97;;;10.60;99.90;;;;;;5053289;28;20231;-57
2023/04/20 11:59:26;;;;;;;4.87;4.53;;;10.50;99.90;;;;;;5050584;28;20320;-57
2023/04/20 12:01:54;;;;;;;4.43;4.10;;;10.50;99.90;;;;;;5048106;28;20655;-57
2023/04/20 12:04:22;;;;;;;4.90;4.50;;;10.30;99.90;;;;;;5050247;28;20189;-57
2023/04/20 12:06:54;;;;;;;4.90;4.37;;;10.40;99.90;;;;;;5048654;28;20193;-57
2023/04/20 12:09:25;;;;;;;8.40;4.73;;;10.40;99.90;;;;;;5052402;28;20300;-57
2023/04/20 12:11:53;;;;;;;4.77;4.37;;;10.30;99.90;;;;;;5046365;28;20212;-58
2023/04/20 12:14:23;;;;;;;7.47;4.83;;;10.20;99.90;;;;;;5049294;28;20213;-57
2023/04/20 12:16:51;;;;;;;7.70;5.60;;;10.20;99.90;;;;;;5043996;28;20274;-57
2023/04/20 12:19:20;;;;;;;5.37;4.87;;;10.20;99.90;;;;;;5041205;28;20290;-57
2023/04/20 12:21:48;;;;;;;7.00;5.20;;;10.20;99.90;;;;;;5047139;28;20210;-57
2023/04/20 12:24:16;;;;;;;11.63;4.80;;;10.30;99.90;;;;;;5046256;28;20690;-57
2023/04/20 12:26:45;;;;;;;4.37;3.97;;;10.30;99.90;;;;;;5049884;28;20638;-57
2023/04/20 12:29:14;;;;;;;7.40;4.77;;;10.30;99.90;;;;;;5053066;28;20212;-57
2023/04/20 12:31:45;;;;;;;6.97;5.13;;;10.30;99.90;;;;;;5038405;28;20217;-57
2023/04/20 12:34:13;;;;;;;4.33;3.93;;;10.40;99.90;;;;;;5043575;28;20284;-57
2023/04/20 12:36:44;;;;;;;3.60;3.40;;;10.30;99.90;;;;;;5050244;28;20212;-57
2023/04/20 12:39:12;;;;;;;4.17;3.93;;;10.30;99.90;;;;;;5049331;28;20274;-57
2023/04/20 12:41:41;;;;;;;4.73;4.33;;;10.40;99.90;;;;;;5043394;28;20222;-57
2023/04/20 12:44:12;;;;;;;5.13;4.63;;;10.60;99.90;;;;;;5042093;28;20263;-58
2023/04/20 12:46:41;;;;;;;3.97;3.67;;;10.90;99.90;;;;;;5048108;28;20262;-57
2023/04/20 12:49:10;;;;;;;4.00;3.70;;;11.20;99.90;;;;;;5042601;28;20190;-57
2023/04/20 12:51:39;;;;;;;4.63;4.03;;;11.40;99.90;;;;;;5048914;28;20274;-57
2023/04/20 12:54:10;;;;;;;4.80;4.33;;;11.60;99.90;;;;;;5050094;28;20564;-58
2023/04/20 12:56:38;;;;;;;4.23;3.93;;;11.60;99.90;;;;;;5047197;28;20230;-58
2023/04/20 12:59:07;;;;;;;4.37;4.00;;;11.70;99.90;;;;;;5041444;28;20217;-58
2023/04/20 13:01:36;;;;;;;5.07;4.40;;;11.80;99.90;;;;;;5051986;28;20184;-58
2023/04/20 13:04:04;;;;;;;4.50;4.20;;;11.90;99.90;;;;;;5041451;28;20235;-58